Time;durP1;ratioP1;P1;durP2;ratioP2;P2;SDS_P1;SDS_P2;PMS_P1;PMS_P2;Temp;Humidity;BMP_temperature;BMP_pressure;BME280_temperature;BME280_humidity;BME280_pressure;Samples;Min_cycle;Max_cycle;Signal;HPM_P1;HPM_P2
2021/08/05 00:01:50;;;;;;;37.08;33.88;;;15.20;99.90;;;;;;6185414;23;20024;-75
2021/08/05 00:04:15;;;;;;;42.75;39.17;;;15.20;99.90;;;;;;6220101;23;20031;-76
2021/08/05 00:06:41;;;;;;;33.53;30.73;;;15.20;99.90;;;;;;6217957;23;20377;-76
2021/08/05 00:09:07;;;;;;;58.47;53.13;;;15.10;99.90;;;;;;6219780;23;20020;-75
2021/08/05 00:11:33;;;;;;;42.25;38.83;;;15.10;99.90;;;;;;6221249;23;20027;-75
2021/08/05 00:13:59;;;;;;;44.80;41.03;;;15.00;99.90;;;;;;6183857;23;20042;-75
2021/08/05 00:16:25;;;;;;;49.70;45.53;;;15.00;99.90;;;;;;6178738;23;20029;-76
2021/08/05 00:18:51;;;;;;;48.20;44.47;;;15.00;99.90;;;;;;6188519;23;20031;-75
2021/08/05 00:21:18;;;;;;;38.75;35.55;;;15.00;99.90;;;;;;6179550;23;20021;-76
2021/08/05 00:23:44;;;;;;;44.13;40.35;;;15.00;99.90;;;;;;6179650;23;20068;-76
2021/08/05 00:26:11;;;;;;;36.88;33.95;;;14.90;99.90;;;;;;6181700;23;20009;-75
2021/08/05 00:28:37;;;;;;;50.53;46.72;;;14.90;99.90;;;;;;6179996;23;20020;-76
2021/08/05 00:31:04;;;;;;;40.53;37.25;;;14.90;99.90;;;;;;6179573;23;20143;-75
2021/08/05 00:33:30;;;;;;;45.15;41.45;;;14.90;99.90;;;;;;6191902;23;20063;-76
2021/08/05 00:35:56;;;;;;;42.92;39.53;;;14.90;99.90;;;;;;6181587;23;20444;-75
2021/08/05 00:38:22;;;;;;;50.05;45.85;;;14.90;99.90;;;;;;6178835;23;20013;-75
2021/08/05 00:40:48;;;;;;;44.22;40.72;;;14.80;99.90;;;;;;6181640;23;20012;-75
2021/08/05 00:43:14;;;;;;;44.97;41.47;;;14.90;99.90;;;;;;6191296;23;20437;-75
2021/08/05 00:45:40;;;;;;;44.35;40.85;;;14.80;99.90;;;;;;6191210;23;20436;-75
2021/08/05 00:48:06;;;;;;;44.67;40.63;;;14.70;99.90;;;;;;6190492;23;20024;-75
2021/08/05 00:50:33;;;;;;;43.13;39.63;;;14.70;99.90;;;;;;6180812;23;20104;-75
2021/08/05 00:52:59;;;;;;;48.65;44.63;;;14.70;99.90;;;;;;6179114;23;20025;-75
2021/08/05 00:55:26;;;;;;;39.85;36.63;;;14.70;99.90;;;;;;6179712;23;20017;-75
2021/08/05 00:57:52;;;;;;;44.63;40.65;;;14.60;99.90;;;;;;6180112;23;20017;-75
2021/08/05 01:00:22;;;;;;;40.83;37.58;;;14.60;99.90;;;;;;6181754;23;20020;-75
2021/08/05 01:03:10;;;;;;;36.72;33.83;;;14.60;99.90;;;;;;6191496;23;20009;-76
2021/08/05 01:05:40;;;;;;;32.03;29.35;;;14.50;99.90;;;;;;6193172;23;20088;-75
2021/08/05 01:08:14;;;;;;;32.80;30.30;;;14.50;99.90;;;;;;6154043;23;20554;-75
2021/08/05 01:10:56;;;;;;;38.58;35.67;;;14.50;99.90;;;;;;6185517;23;20009;-75
2021/08/05 01:13:45;;;;;;;42.13;38.92;;;14.50;99.90;;;;;;6190088;23;20052;-75
2021/08/05 01:16:14;;;;;;;38.25;35.22;;;14.50;99.90;;;;;;6194780;23;20009;-76
2021/08/05 01:18:41;;;;;;;37.92;34.47;;;14.50;99.90;;;;;;6221048;23;20424;-75
2021/08/05 01:22:00;;;;;;;41.65;38.05;;;14.50;99.90;;;;;;6195658;23;20195;-75
2021/08/05 01:24:29;;;;;;;32.55;29.88;;;14.40;99.90;;;;;;6038063;23;20163;-75
2021/08/05 01:27:02;;;;;;;40.28;37.20;;;14.40;99.90;;;;;;6070507;23;20015;-75
2021/08/05 01:29:32;;;;;;;34.92;32.22;;;14.30;99.90;;;;;;6035995;23;20019;-75
2021/08/05 01:31:59;;;;;;;33.67;30.50;;;14.30;99.90;;;;;;6072284;23;20015;-75
2021/08/05 01:34:26;;;;;;;30.23;27.90;;;14.20;99.90;;;;;;6062047;23;20057;-76
2021/08/05 01:36:53;;;;;;;40.40;37.38;;;14.30;99.90;;;;;;6072745;23;20035;-75
2021/08/05 01:39:19;;;;;;;34.50;31.45;;;14.10;99.90;;;;;;6036216;23;20019;-75
2021/08/05 01:41:48;;;;;;;35.58;32.78;;;14.10;99.90;;;;;;6063155;23;20029;-76
2021/08/05 01:44:14;;;;;;;27.92;25.75;;;14.10;99.90;;;;;;6070616;23;20023;-75
2021/08/05 01:46:42;;;;;;;25.30;23.17;;;14.10;99.90;;;;;;6048809;23;20021;-75
2021/08/05 01:49:07;;;;;;;23.05;20.95;;;14.10;99.90;;;;;;6060835;23;20177;-75
2021/08/05 01:51:34;;;;;;;24.38;22.45;;;14.10;99.90;;;;;;6062374;23;20458;-75
2021/08/05 01:54:01;;;;;;;31.63;28.92;;;14.10;99.90;;;;;;6037084;23;20347;-75
2021/08/05 01:56:27;;;;;;;29.33;26.92;;;14.10;99.90;;;;;;6063440;23;20106;-75
2021/08/05 01:58:57;;;;;;;30.65;28.10;;;14.00;99.90;;;;;;6072143;23;20022;-75
2021/08/05 02:01:24;;;;;;;23.30;21.35;;;13.90;99.90;;;;;;6168781;23;20046;-75
2021/08/05 02:03:59;;;;;;;26.65;24.52;;;13.90;99.90;;;;;;6196748;23;20047;-75
2021/08/05 02:06:27;;;;;;;21.80;19.88;;;14.00;99.90;;;;;;6217348;23;20096;-75
2021/08/05 02:09:10;;;;;;;24.05;22.15;;;13.90;99.90;;;;;;6221046;23;20013;-76
2021/08/05 02:11:42;;;;;;;22.95;20.83;;;13.90;99.90;;;;;;6210339;23;20013;-75
2021/08/05 02:14:10;;;;;;;22.30;20.50;;;13.90;99.90;;;;;;6221217;23;20027;-75
2021/08/05 02:16:38;;;;;;;23.80;21.88;;;13.80;99.90;;;;;;6219616;23;20333;-75
2021/08/05 02:19:06;;;;;;;22.58;20.52;;;13.80;99.90;;;;;;6184365;23;20066;-75
2021/08/05 02:21:33;;;;;;;25.30;22.70;;;13.80;99.90;;;;;;6221132;23;20431;-75
2021/08/05 02:24:00;;;;;;;29.42;27.13;;;13.70;99.90;;;;;;6195251;23;20037;-75
2021/08/05 02:26:27;;;;;;;19.48;17.70;;;13.70;99.90;;;;;;6186271;23;20090;-75
2021/08/05 02:28:54;;;;;;;19.92;18.15;;;13.70;99.90;;;;;;6220610;23;20103;-75
2021/08/05 02:31:20;;;;;;;24.98;22.92;;;13.60;99.90;;;;;;6211329;23;20067;-75
2021/08/05 02:33:49;;;;;;;16.67;15.23;;;13.60;99.90;;;;;;6184376;23;20013;-75
2021/08/05 02:36:15;;;;;;;20.70;18.88;;;13.50;99.90;;;;;;6186312;23;20008;-75
2021/08/05 02:38:41;;;;;;;17.83;16.33;;;13.40;99.90;;;;;;6211041;23;20020;-75
2021/08/05 02:41:08;;;;;;;16.77;15.20;;;13.30;99.90;;;;;;6212093;23;20020;-75
2021/08/05 02:43:35;;;;;;;18.60;16.85;;;13.40;99.90;;;;;;6209469;23;20028;-75
2021/08/05 02:46:03;;;;;;;19.08;17.25;;;13.30;99.90;;;;;;6195398;23;20035;-75
2021/08/05 02:48:32;;;;;;;18.25;16.40;;;13.40;99.90;;;;;;6184804;23;20017;-75
2021/08/05 02:50:59;;;;;;;21.38;18.77;;;13.40;99.90;;;;;;6221021;23;20099;-75
2021/08/05 02:53:27;;;;;;;17.60;15.98;;;13.50;99.90;;;;;;6220568;23;20019;-75
2021/08/05 02:55:54;;;;;;;20.95;19.15;;;13.40;99.90;;;;;;6185349;23;20112;-75
2021/08/05 02:58:20;;;;;;;22.58;20.60;;;13.40;99.90;;;;;;6184079;23;20103;-75
2021/08/05 03:00:46;;;;;;;20.23;18.58;;;13.30;99.90;;;;;;6222519;23;20043;-75
2021/08/05 03:03:12;;;;;;;18.00;16.33;;;13.40;99.90;;;;;;6184824;23;20028;-75
2021/08/05 03:05:40;;;;;;;23.85;21.67;;;13.40;99.90;;;;;;6195693;23;20024;-75
2021/08/05 03:08:07;;;;;;;19.50;17.65;;;13.30;99.90;;;;;;6212196;23;20499;-75
2021/08/05 03:10:34;;;;;;;22.92;20.90;;;13.30;99.90;;;;;;6210909;23;20017;-74
2021/08/05 03:12:59;;;;;;;21.30;19.30;;;13.30;99.90;;;;;;6183713;23;20170;-75
2021/08/05 03:15:25;;;;;;;17.00;15.48;;;13.30;99.90;;;;;;6160006;23;20009;-75
2021/08/05 03:17:51;;;;;;;19.92;18.30;;;13.20;99.90;;;;;;6212813;23;20432;-75
2021/08/05 03:20:17;;;;;;;18.23;16.45;;;13.30;99.90;;;;;;6221087;23;20122;-75
2021/08/05 03:22:44;;;;;;;22.60;20.27;;;13.20;99.90;;;;;;6184722;23;20017;-75
2021/08/05 03:25:10;;;;;;;17.98;16.42;;;13.20;99.90;;;;;;6190720;23;20016;-75
2021/08/05 03:27:38;;;;;;;20.48;18.67;;;13.20;99.90;;;;;;6219362;23;20490;-75
2021/08/05 03:30:05;;;;;;;18.83;17.13;;;13.10;99.90;;;;;;6210467;23;20074;-75
2021/08/05 03:32:31;;;;;;;18.70;17.10;;;13.20;99.90;;;;;;6222728;23;20349;-75
2021/08/05 03:34:57;;;;;;;22.63;20.67;;;13.10;99.90;;;;;;6194005;23;20015;-75
2021/08/05 03:37:22;;;;;;;20.05;18.15;;;13.10;99.90;;;;;;6222709;23;20015;-75
2021/08/05 03:39:48;;;;;;;25.45;23.00;;;13.20;99.90;;;;;;6218647;23;20285;-75
2021/08/05 03:42:14;;;;;;;26.38;24.02;;;13.10;99.90;;;;;;6195119;23;20019;-75
2021/08/05 03:44:40;;;;;;;29.65;27.08;;;13.20;99.90;;;;;;6220806;23;20019;-75
2021/08/05 03:47:05;;;;;;;28.13;25.52;;;13.20;99.90;;;;;;6221334;23;20067;-75
2021/08/05 03:49:31;;;;;;;32.58;29.75;;;13.20;99.90;;;;;;6220016;23;20013;-75
2021/08/05 03:51:57;;;;;;;23.70;21.42;;;13.20;99.90;;;;;;6184659;23;20448;-75
2021/08/05 03:54:22;;;;;;;29.48;26.63;;;13.20;99.90;;;;;;6209099;23;20229;-75
2021/08/05 03:56:48;;;;;;;34.88;31.67;;;13.30;99.90;;;;;;6194684;23;20043;-76
2021/08/05 03:59:14;;;;;;;36.00;32.78;;;13.30;99.90;;;;;;6220924;23;20093;-75
2021/08/05 04:01:40;;;;;;;36.50;33.17;;;13.20;99.90;;;;;;6211913;23;20019;-75
2021/08/05 04:04:06;;;;;;;35.97;32.53;;;13.40;99.90;;;;;;6184419;23;20016;-75
2021/08/05 04:06:32;;;;;;;42.38;38.40;;;13.30;99.90;;;;;;6190724;23;20074;-75
2021/08/05 04:08:58;;;;;;;37.45;33.92;;;13.40;99.90;;;;;;6220369;23;20487;-75
2021/08/05 04:11:23;;;;;;;45.00;40.95;;;13.40;99.90;;;;;;6185706;23;20047;-75
2021/08/05 04:13:49;;;;;;;35.88;32.53;;;13.40;99.90;;;;;;6183499;23;20115;-75
2021/08/05 04:16:15;;;;;;;43.20;39.03;;;13.40;99.90;;;;;;6184888;23;20313;-76
2021/08/05 04:18:41;;;;;;;44.10;40.22;;;13.50;99.90;;;;;;6220708;23;20012;-75
2021/08/05 04:21:06;;;;;;;44.92;40.72;;;13.50;99.90;;;;;;6221836;23;20012;-75
2021/08/05 04:23:35;;;;;;;45.08;40.97;;;13.50;99.90;;;;;;6221085;23;20024;-76
2021/08/05 04:26:01;;;;;;;41.72;37.60;;;13.50;99.90;;;;;;6211604;23;20013;-76
2021/08/05 04:28:30;;;;;;;38.53;34.78;;;13.50;99.90;;;;;;6183517;23;20012;-76
2021/08/05 04:30:56;;;;;;;38.22;34.67;;;13.60;99.90;;;;;;6211058;23;20017;-75
2021/08/05 04:33:22;;;;;;;36.05;32.85;;;13.60;99.90;;;;;;6212458;23;20333;-76
2021/08/05 04:35:48;;;;;;;29.40;26.30;;;13.70;99.90;;;;;;6187472;23;20017;-76
2021/08/05 04:38:29;;;;;;;31.92;28.77;;;13.70;99.90;;;;;;6119330;23;20662;-76
2021/08/05 04:40:55;;;;;;;37.50;34.00;;;13.80;99.90;;;;;;6121237;23;20060;-76
2021/08/05 04:43:20;;;;;;;38.15;34.60;;;13.90;99.90;;;;;;6119402;23;20144;-76
2021/08/05 04:45:46;;;;;;;39.83;36.22;;;14.10;99.90;;;;;;6130340;23;20096;-76
2021/08/05 04:48:12;;;;;;;41.60;37.45;;;14.20;99.90;;;;;;6128174;23;20017;-79
2021/08/05 04:50:40;;;;;;;32.78;30.02;;;14.30;99.90;;;;;;6119980;23;20022;-79
2021/08/05 04:53:07;;;;;;;34.53;31.33;;;14.80;99.90;;;;;;6117917;23;20018;-79
2021/08/05 04:55:34;;;;;;;35.17;32.05;;;15.20;99.90;;;;;;6093900;23;20410;-78
2021/08/05 04:58:06;;;;;;;33.35;30.55;;;15.50;99.90;;;;;;6119861;23;20077;-78
2021/08/05 05:00:34;;;;;;;39.47;36.20;;;15.80;99.90;;;;;;6095438;23;20018;-78
2021/08/05 05:03:02;;;;;;;34.38;31.35;;;16.00;99.90;;;;;;6123939;23;20013;-78
2021/08/05 05:05:31;;;;;;;55.83;50.85;;;16.30;99.90;;;;;;6129942;23;20117;-79
2021/08/05 05:08:20;;;;;;;38.97;35.22;;;16.30;99.90;;;;;;6121073;23;20031;-78
2021/08/05 05:10:47;;;;;;;50.35;45.83;;;16.30;99.90;;;;;;6124925;23;20092;-78
2021/08/05 05:13:13;;;;;;;93.70;85.22;;;16.50;99.90;;;;;;6130472;23;20047;-79
2021/08/05 05:15:40;;;;;;;44.05;40.13;;;16.60;99.90;;;;;;6171366;23;20527;-79
2021/08/05 05:18:06;;;;;;;39.47;35.83;;;16.80;99.90;;;;;;6186224;23;20023;-78
2021/08/05 05:20:33;;;;;;;50.55;46.13;;;16.80;99.90;;;;;;6196499;23;20106;-79
2021/08/05 05:22:59;;;;;;;52.92;48.50;;;16.80;99.90;;;;;;6223163;23;20024;-79
2021/08/05 05:25:26;;;;;;;30.63;27.75;;;16.80;99.90;;;;;;6185881;23;20404;-79
2021/08/05 05:27:52;;;;;;;50.78;46.13;;;16.70;99.90;;;;;;6161061;23;20062;-80
2021/08/05 05:30:19;;;;;;;58.70;53.08;;;16.80;99.90;;;;;;6213251;23;20417;-77
2021/08/05 05:32:46;;;;;;;52.97;47.92;;;16.70;99.90;;;;;;6223453;23;20389;-77
2021/08/05 05:35:13;;;;;;;60.13;54.33;;;16.90;99.90;;;;;;6212738;23;20368;-81
2021/08/05 05:37:39;;;;;;;78.88;70.32;;;17.10;99.90;;;;;;6186166;23;20013;-80
2021/08/05 05:40:08;;;;;;;68.93;61.78;;;17.20;99.90;;;;;;6193705;23;20020;-80
2021/08/05 05:42:34;;;;;;;57.40;52.35;;;17.20;99.90;;;;;;6186130;23;20054;-80
2021/08/05 05:45:03;;;;;;;58.13;52.55;;;17.30;99.90;;;;;;6196345;23;20440;-81
2021/08/05 05:47:29;;;;;;;89.53;79.32;;;17.20;99.90;;;;;;6196974;23;20013;-82
2021/08/05 05:49:55;;;;;;;64.22;58.00;;;17.00;99.90;;;;;;6196305;23;20078;-81
2021/08/05 05:52:22;;;;;;;86.53;74.90;;;16.90;99.90;;;;;;6161751;23;20092;-76
2021/08/05 05:54:48;;;;;;;63.92;57.75;;;16.70;99.90;;;;;;6212103;23;20013;-75
2021/08/05 05:57:15;;;;;;;61.13;53.63;;;16.70;99.90;;;;;;6187094;23;20020;-75
2021/08/05 05:59:40;;;;;;;61.83;55.88;;;16.70;99.90;;;;;;6186906;23;20020;-75
2021/08/05 06:02:07;;;;;;;61.75;56.03;;;16.70;99.90;;;;;;6187026;23;20107;-76
2021/08/05 06:04:33;;;;;;;63.88;57.45;;;16.70;99.90;;;;;;6196502;23;20528;-77
2021/08/05 06:06:59;;;;;;;61.72;55.65;;;16.70;99.90;;;;;;6218472;23;20020;-77
2021/08/05 06:09:25;;;;;;;72.05;63.42;;;16.70;99.90;;;;;;6185696;23;20103;-77
2021/08/05 06:11:50;;;;;;;172.95;132.98;;;16.80;99.90;;;;;;6214176;23;20024;-76
2021/08/05 06:14:17;;;;;;;135.93;116.78;;;16.80;99.90;;;;;;6196407;23;20512;-76
2021/08/05 06:16:43;;;;;;;55.20;50.25;;;16.90;99.90;;;;;;6161453;23;20095;-77
2021/08/05 06:19:11;;;;;;;67.32;60.45;;;17.00;99.90;;;;;;6185883;23;20024;-77
2021/08/05 06:21:43;;;;;;;82.05;73.43;;;17.10;99.90;;;;;;6186526;23;20028;-77
2021/08/05 06:24:12;;;;;;;69.55;61.95;;;17.10;99.90;;;;;;6223013;23;20009;-77
2021/08/05 06:26:42;;;;;;;67.47;60.47;;;17.20;99.90;;;;;;6216281;23;20009;-77
2021/08/05 06:29:09;;;;;;;126.47;102.57;;;17.30;99.90;;;;;;6223987;23;20040;-77
2021/08/05 06:31:35;;;;;;;110.43;86.63;;;17.30;99.90;;;;;;6213768;23;20095;-77
2021/08/05 06:34:02;;;;;;;63.95;57.65;;;17.40;99.90;;;;;;6222956;23;20484;-77
2021/08/05 06:36:28;;;;;;;54.75;49.15;;;17.50;99.90;;;;;;6196540;23;20423;-77
2021/08/05 06:38:54;;;;;;;66.93;55.92;;;17.50;99.90;;;;;;6211437;23;20459;-75
2021/08/05 06:41:20;;;;;;;203.88;152.60;;;17.60;99.90;;;;;;6189657;23;20020;-77
2021/08/05 06:43:46;;;;;;;78.28;70.32;;;17.60;99.90;;;;;;6196395;23;20108;-77
2021/08/05 06:46:12;;;;;;;179.85;134.25;;;17.70;99.90;;;;;;6196369;23;20036;-77
2021/08/05 06:48:37;;;;;;;240.32;179.20;;;17.80;99.90;;;;;;6222873;23;20423;-77
2021/08/05 06:51:03;;;;;;;57.67;52.28;;;17.90;99.90;;;;;;6212361;23;20353;-78
2021/08/05 06:53:29;;;;;;;54.65;49.38;;;17.90;99.90;;;;;;6211849;23;20396;-76
2021/08/05 06:55:55;;;;;;;54.08;49.08;;;18.00;99.90;;;;;;6212876;23;20497;-77
2021/08/05 06:58:23;;;;;;;64.22;57.88;;;18.10;99.90;;;;;;6186528;23;20021;-77
2021/08/05 07:00:49;;;;;;;75.10;67.10;;;18.20;99.90;;;;;;6222414;23;20020;-78
2021/08/05 07:03:15;;;;;;;126.20;101.75;;;18.20;99.90;;;;;;6222576;23;20340;-77
2021/08/05 07:05:41;;;;;;;104.45;87.78;;;18.30;99.90;;;;;;6222970;23;20013;-77
2021/08/05 07:08:09;;;;;;;82.43;69.75;;;18.30;99.90;;;;;;6185999;23;20511;-77
2021/08/05 07:10:34;;;;;;;85.03;76.28;;;18.30;99.90;;;;;;6210593;23;20091;-77
2021/08/05 07:13:01;;;;;;;297.88;241.98;;;18.30;99.90;;;;;;6222406;23;20020;-78
2021/08/05 07:15:28;;;;;;;253.02;178.48;;;18.30;99.90;;;;;;6162191;23;20016;-78
2021/08/05 07:17:56;;;;;;;92.28;76.82;;;18.30;99.90;;;;;;6181716;23;20023;-77
2021/08/05 07:20:22;;;;;;;112.00;85.40;;;18.30;99.90;;;;;;6181624;23;20032;-77
2021/08/05 07:22:47;;;;;;;116.88;91.88;;;18.40;99.90;;;;;;6181702;23;20013;-77
2021/08/05 07:25:15;;;;;;;71.70;64.03;;;18.50;99.90;;;;;;6190045;23;20421;-77
2021/08/05 07:27:43;;;;;;;115.22;97.70;;;18.60;99.90;;;;;;6183533;23;20013;-77
2021/08/05 07:30:11;;;;;;;135.15;93.30;;;18.80;99.90;;;;;;6193723;23;20020;-77
2021/08/05 07:32:37;;;;;;;78.32;70.32;;;18.90;99.90;;;;;;6193021;23;20045;-77
2021/08/05 07:35:04;;;;;;;302.80;206.73;;;19.00;99.90;;;;;;6181128;23;20075;-77
2021/08/05 07:37:30;;;;;;;383.67;289.30;;;19.10;99.90;;;;;;6183741;23;20017;-77
2021/08/05 07:39:56;;;;;;;291.13;215.13;;;19.10;99.90;;;;;;6191506;23;20024;-77
2021/08/05 07:42:23;;;;;;;72.93;63.55;;;19.00;99.90;;;;;;6193470;23;20016;-77
2021/08/05 07:44:48;;;;;;;161.43;124.10;;;19.10;99.90;;;;;;6181323;23;20340;-77
2021/08/05 07:47:15;;;;;;;82.97;66.30;;;19.20;99.90;;;;;;6181866;23;20088;-77
2021/08/05 07:49:41;;;;;;;76.80;67.47;;;19.20;99.90;;;;;;6192896;23;20076;-77
2021/08/05 07:52:10;;;;;;;94.78;78.65;;;19.10;99.90;;;;;;6179796;23;20017;-77
2021/08/05 07:54:36;;;;;;;199.13;150.05;;;19.20;99.90;;;;;;6180098;23;20054;-77
2021/08/05 07:57:01;;;;;;;94.35;71.65;;;19.10;99.90;;;;;;6181728;23;20116;-77
2021/08/05 07:59:27;;;;;;;225.02;181.20;;;19.10;99.90;;;;;;6192641;23;20041;-77
2021/08/05 08:01:53;;;;;;;232.73;185.50;;;19.20;99.90;;;;;;6181580;23;20021;-76
2021/08/05 08:04:19;;;;;;;100.95;75.63;;;19.10;99.90;;;;;;6192853;23;20020;-78
2021/08/05 08:06:45;;;;;;;88.20;65.93;;;19.20;99.90;;;;;;6190244;23;20012;-77
2021/08/05 08:09:11;;;;;;;199.95;149.30;;;19.20;99.90;;;;;;6194021;23;20017;-77
2021/08/05 08:11:37;;;;;;;113.03;90.22;;;19.30;99.90;;;;;;6187924;23;20032;-78
2021/08/05 08:14:03;;;;;;;172.75;151.63;;;19.40;99.90;;;;;;6184968;23;20020;-79
2021/08/05 08:16:29;;;;;;;296.55;201.27;;;19.50;99.90;;;;;;6194833;23;20020;-81
2021/08/05 08:18:55;;;;;;;99.95;76.78;;;19.60;99.90;;;;;;6225267;23;20009;-79
2021/08/05 08:21:21;;;;;;;86.15;71.03;;;19.60;99.90;;;;;;6188446;23;20027;-78
2021/08/05 08:23:47;;;;;;;104.32;74.35;;;19.70;99.90;;;;;;6224243;23;20015;-78
2021/08/05 08:26:14;;;;;;;66.30;59.65;;;19.80;99.90;;;;;;6219926;23;20012;-79
2021/08/05 08:28:39;;;;;;;111.18;78.43;;;19.90;99.90;;;;;;6224879;23;20012;-78
2021/08/05 08:31:05;;;;;;;212.90;151.52;;;19.90;99.90;;;;;;6224839;23;20039;-78
2021/08/05 08:33:31;;;;;;;247.30;177.10;;;20.00;99.90;;;;;;6186983;23;20059;-78
2021/08/05 08:35:58;;;;;;;153.70;120.50;;;20.10;99.90;;;;;;6224895;23;20063;-78
2021/08/05 08:38:25;;;;;;;221.25;178.00;;;20.20;99.90;;;;;;6186989;23;20157;-77
2021/08/05 08:40:54;;;;;;;59.80;53.65;;;20.20;99.90;;;;;;6211865;23;20074;-79
2021/08/05 08:43:19;;;;;;;93.80;76.20;;;20.30;99.90;;;;;;6214793;23;20008;-79
2021/08/05 08:45:47;;;;;;;143.00;122.10;;;20.40;99.90;;;;;;6187697;23;20024;-79
2021/08/05 08:48:13;;;;;;;93.30;65.65;;;20.40;99.90;;;;;;6188204;23;20084;-78
2021/08/05 08:50:42;;;;;;;110.45;78.18;;;20.50;99.90;;;;;;6188059;23;20022;-76
2021/08/05 08:53:11;;;;;;;333.50;256.67;;;20.60;99.90;;;;;;6187842;23;20070;-76
2021/08/05 08:55:41;;;;;;;75.15;67.20;;;20.60;99.90;;;;;;6215120;23;20435;-76
2021/08/05 08:58:08;;;;;;;72.38;64.95;;;20.60;99.90;;;;;;6214071;23;20012;-81
2021/08/05 09:00:37;;;;;;;88.10;68.82;;;20.70;99.90;;;;;;6188646;23;20020;-76
2021/08/05 09:03:05;;;;;;;169.00;109.75;;;20.70;99.90;;;;;;6188495;23;20013;-79
2021/08/05 09:05:31;;;;;;;104.32;77.53;;;20.80;99.90;;;;;;6187129;23;20009;-80
2021/08/05 09:08:00;;;;;;;227.85;167.98;;;20.90;99.90;;;;;;6186984;23;20012;-77
2021/08/05 09:10:27;;;;;;;73.07;63.58;;;21.00;99.90;;;;;;6187705;23;20020;-79
2021/08/05 09:12:54;;;;;;;458.35;370.58;;;21.10;99.90;;;;;;6214410;23;20065;-79
2021/08/05 09:15:38;;;;;;;87.10;60.92;;;21.20;99.90;;;;;;6188210;23;20040;-79
2021/08/05 09:18:24;;;;;;;263.27;193.23;;;21.30;99.90;;;;;;6216111;23;20091;-79
2021/08/05 09:21:09;;;;;;;93.40;72.20;;;21.40;99.90;;;;;;6162560;23;20381;-78
2021/08/05 09:23:53;;;;;;;112.95;83.10;;;21.40;99.90;;;;;;6186753;23;20023;-79
2021/08/05 09:26:43;;;;;;;101.55;74.70;;;21.50;99.90;;;;;;6187932;23;20012;-79
2021/08/05 09:29:22;;;;;;;102.18;77.55;;;21.50;99.90;;;;;;6223985;23;20420;-79
2021/08/05 09:32:01;;;;;;;111.20;77.80;;;21.60;99.90;;;;;;6214165;23;20110;-80
2021/08/05 09:34:40;;;;;;;137.60;90.50;;;21.70;99.90;;;;;;6223693;23;20096;-78
2021/08/05 09:37:08;;;;;;;75.82;67.88;;;21.80;99.90;;;;;;6197973;23;20027;-78
2021/08/05 09:39:37;;;;;;;248.68;175.80;;;22.00;99.90;;;;;;6223530;23;20021;-78
2021/08/05 09:42:08;;;;;;;94.45;76.18;;;22.00;99.90;;;;;;6187675;23;20016;-79
2021/08/05 09:44:37;;;;;;;82.22;71.82;;;22.20;99.90;;;;;;6197354;23;20066;-78
2021/08/05 09:47:19;;;;;;;329.77;235.35;;;22.20;99.90;;;;;;6224008;23;20047;-79
2021/08/05 09:49:49;;;;;;;97.25;76.22;;;22.40;99.90;;;;;;6224452;23;20020;-81
2021/08/05 09:52:24;;;;;;;58.55;53.17;;;22.40;99.90;;;;;;6162885;23;20017;-80
2021/08/05 09:55:06;;;;;;;85.53;64.82;;;22.50;99.90;;;;;;6189465;23;20099;-80
2021/08/05 09:57:46;;;;;;;86.22;75.25;;;22.50;99.90;;;;;;6162982;23;20075;-80
2021/08/05 10:00:17;;;;;;;163.38;117.82;;;22.60;99.90;;;;;;6190217;23;20021;-79
2021/08/05 10:02:45;;;;;;;204.18;151.65;;;22.70;99.90;;;;;;6187521;23;20028;-80
2021/08/05 10:05:23;;;;;;;287.45;214.68;;;22.70;99.90;;;;;;6186883;23;20019;-80
2021/08/05 10:07:51;;;;;;;87.00;73.88;;;22.80;99.90;;;;;;6186728;23;20095;-80
2021/08/05 10:10:25;;;;;;;91.97;79.15;;;22.90;99.90;;;;;;6196576;23;20112;-80
2021/08/05 10:12:55;;;;;;;76.75;66.78;;;23.00;99.90;;;;;;6223299;23;20021;-79
2021/08/05 10:15:21;;;;;;;71.53;63.83;;;23.20;99.90;;;;;;6187130;23;20017;-79
2021/08/05 10:17:54;;;;;;;107.72;80.57;;;23.30;99.90;;;;;;6187223;23;20052;-79
2021/08/05 10:20:23;;;;;;;76.30;68.32;;;23.40;99.90;;;;;;6197285;23;20388;-80
2021/08/05 10:22:50;;;;;;;91.03;76.85;;;23.60;99.90;;;;;;6223374;23;20016;-80
2021/08/05 10:25:21;;;;;;;170.88;134.10;;;23.80;99.90;;;;;;6185871;23;20092;-79
2021/08/05 10:27:47;;;;;;;134.00;100.40;;;23.90;99.90;;;;;;6196576;23;20028;-78
2021/08/05 10:30:16;;;;;;;245.30;178.45;;;24.10;99.90;;;;;;6223074;23;20227;-78
2021/08/05 10:32:42;;;;;;;107.47;89.88;;;24.10;99.90;;;;;;6196792;23;20468;-79
2021/08/05 10:35:12;;;;;;;307.02;214.57;;;24.20;99.90;;;;;;6223517;23;20012;-80
2021/08/05 10:37:39;;;;;;;104.45;73.80;;;24.30;99.90;;;;;;6213074;23;20331;-79
2021/08/05 10:40:06;;;;;;;245.50;180.35;;;24.40;99.90;;;;;;6186113;23;20047;-78
2021/08/05 10:42:33;;;;;;;120.40;94.28;;;24.50;99.90;;;;;;6213978;23;20143;-81
2021/08/05 10:44:59;;;;;;;95.28;73.60;;;24.60;99.90;;;;;;6223567;23;20035;-78
2021/08/05 10:47:28;;;;;;;129.65;93.68;;;24.70;99.90;;;;;;6213572;23;20036;-80
2021/08/05 10:49:56;;;;;;;142.20;105.00;;;24.90;99.90;;;;;;6213393;23;20016;-80
2021/08/05 10:52:34;;;;;;;151.80;107.95;;;24.90;99.90;;;;;;6212867;23;20120;-80
2021/08/05 10:55:02;;;;;;;152.90;106.93;;;24.90;99.90;;;;;;6185069;23;20023;-79
2021/08/05 10:57:28;;;;;;;137.85;93.38;;;25.10;99.90;;;;;;6186995;23;20095;-80
2021/08/05 11:00:14;;;;;;;147.68;102.95;;;25.10;99.90;;;;;;6213599;23;20044;-80
2021/08/05 11:02:51;;;;;;;155.48;102.93;;;25.30;99.90;;;;;;6196821;23;20012;-80
2021/08/05 11:05:25;;;;;;;194.40;135.20;;;25.40;99.90;;;;;;6161556;23;20027;-80
2021/08/05 11:08:15;;;;;;;100.32;71.63;;;25.50;99.90;;;;;;6161604;23;20096;-80
2021/08/05 11:10:41;;;;;;;130.35;89.85;;;25.30;99.70;;;;;;6186718;23;20091;-80
2021/08/05 11:13:07;;;;;;;94.50;72.57;;;25.20;99.70;;;;;;6187353;23;20084;-80
2021/08/05 11:15:33;;;;;;;108.55;81.72;;;25.60;99.90;;;;;;6223425;23;20044;-80
2021/08/05 11:18:13;;;;;;;99.28;75.53;;;25.80;99.90;;;;;;6213634;23;20028;-80
2021/08/05 11:20:52;;;;;;;162.20;101.38;;;26.10;99.90;;;;;;6223748;23;20071;-80
2021/08/05 11:23:37;;;;;;;164.10;110.18;;;26.20;99.90;;;;;;6185919;23;20020;-80
2021/08/05 11:26:08;;;;;;;161.35;98.95;;;26.20;99.90;;;;;;6220720;23;20483;-80
2021/08/05 11:28:48;;;;;;;116.65;83.50;;;26.00;99.90;;;;;;6185163;23;20016;-80
2021/08/05 11:31:23;;;;;;;142.00;92.03;;;26.00;99.70;;;;;;6187011;23;20016;-80
2021/08/05 11:33:51;;;;;;;176.15;119.32;;;26.40;99.90;;;;;;6186879;23;20083;-81
2021/08/05 11:36:30;;;;;;;147.73;87.93;;;26.60;99.90;;;;;;6196652;23;20012;-80
2021/08/05 11:39:09;;;;;;;146.93;91.47;;;26.90;99.70;;;;;;6211923;23;20444;-81
2021/08/05 11:42:01;;;;;;;98.57;69.18;;;27.10;99.90;;;;;;6217993;23;20017;-80
2021/08/05 11:44:29;;;;;;;156.10;96.80;;;27.20;99.10;;;;;;6186736;23;20447;-81
2021/08/05 11:47:21;;;;;;;156.18;98.07;;;27.40;99.20;;;;;;6223292;23;20436;-80
2021/08/05 11:49:53;;;;;;;111.18;73.80;;;27.20;97.80;;;;;;6223089;23;20089;-81
2021/08/05 11:52:42;;;;;;;134.13;85.88;;;27.50;97.90;;;;;;6223608;23;20013;-81
2021/08/05 11:55:20;;;;;;;152.32;97.57;;;27.60;97.80;;;;;;6212792;23;20017;-79
2021/08/05 11:58:01;;;;;;;154.43;98.25;;;27.90;96.90;;;;;;6186864;23;20040;-77
2021/08/05 12:00:28;;;;;;;170.95;99.78;;;28.00;98.00;;;;;;6213058;23;20116;-78
2021/08/05 12:03:06;;;;;;;143.27;90.50;;;28.20;98.10;;;;;;6223349;23;20016;-78
2021/08/05 12:05:48;;;;;;;165.18;98.70;;;28.40;98.40;;;;;;6214059;23;20013;-78
2021/08/05 12:08:22;;;;;;;106.07;75.35;;;28.50;97.10;;;;;;6184806;23;20012;-79
2021/08/05 12:10:49;;;;;;;154.32;96.85;;;28.40;94.60;;;;;;6211313;23;20036;-78
2021/08/05 12:13:20;;;;;;;147.52;99.88;;;28.40;95.60;;;;;;6160357;23;20329;-79
2021/08/05 12:15:50;;;;;;;87.55;62.15;;;28.50;95.60;;;;;;6161972;23;20340;-78
2021/08/05 12:18:20;;;;;;;104.57;69.20;;;28.10;93.30;;;;;;6214780;23;20078;-78
2021/08/05 12:20:53;;;;;;;193.40;166.93;;;28.50;95.40;;;;;;6213120;23;20100;-82
2021/08/05 12:23:28;;;;;;;113.85;72.93;;;28.30;94.10;;;;;;6212048;23;20020;-82
2021/08/05 12:28:26;;;;;;;123.78;80.05;;;28.10;94.20;;;;;;6222751;23;20012;-81
2021/08/05 12:31:06;;;;;;;;;;;;;;;;;;;;;
2021/08/05 12:33:39;;;;;;;131.25;82.38;;;28.50;95.30;;;;;;6212543;23;20028;-81
2021/08/05 12:36:13;;;;;;;171.75;107.05;;;28.30;95.40;;;;;;6186505;23;20013;-82